Time,TemperatureF,DewpointF,PressureIn,WindDirection,WindDirectionDegrees,WindSpeedMPH,WindSpeedGustMPH,Humidity,HourlyPrecipIn,Conditions,Clouds,dailyrainin,SoftwareType,DateUTC
2013-01-20 00:02:00,45.3,21.2,18.63,SW,235,10.5,20.1,38,0.00,,---,0.00,VWS V13.01,2013-01-20 05:02:00,
2013-01-20 00:03:00,45.3,21.2,18.63,SW,225,10.1,20.1,38,0.00,,---,0.00,VWS V13.01,2013-01-20 05:03:00,
2013-01-20 00:04:00,45.3,21.2,18.63,SW,225,8.7,20.1,38,0.00,,---,0.00,VWS V13.01,2013-01-20 05:04:00,
2013-01-20 00:06:00,45.3,21.2,18.63,SW,216,14.5,20.1,38,0.00,,---,0.00,VWS V13.01,2013-01-20 05:06:00,
2013-01-20 00:12:00,45.3,21.2,18.63,SSW,208,17.9,17.9,38,0.00,,---,0.00,VWS V13.01,2013-01-20 05:12:00,
2013-01-20 00:17:00,45.3,21.2,18.63,SSW,196,13.2,24.6,38,0.00,,---,0.00,VWS V13.01,2013-01-20 05:17:00,
2013-01-20 00:22:00,45.3,21.2,18.63,SSW,213,10.1,15.0,38,0.00,,---,0.00,VWS V13.01,2013-01-20 05:22:00,
2013-01-20 00:27:00,45.5,22.0,18.63,SSW,213,7.6,22.8,39,0.00,,---,0.00,VWS V13.01,2013-01-20 05:27:00,
2013-01-20 00:32:00,45.5,22.0,18.63,SSW,212,10.1,17.0,39,0.00,,---,0.00,VWS V13.01,2013-01-20 05:32:00,
2013-01-20 00:38:00,45.5,22.0,18.63,ESE,118,5.4,18.3,39,0.00,,---,0.00,VWS V13.01,2013-01-20 05:38:00,
2013-01-20 00:43:00,45.5,22.0,18.63,North,4,16.3,22.8,39,0.00,,---,0.00,VWS V13.01,2013-01-20 05:43:00,
2013-01-20 00:48:00,45.5,22.0,18.63,SW,236,24.2,24.2,39,0.00,,---,0.00,VWS V13.01,2013-01-20 05:48:00,
2013-01-20 00:53:00,45.7,22.2,18.63,SW,223,8.3,13.2,39,0.00,,---,0.00,VWS V13.01,2013-01-20 05:53:00,
2013-01-20 00:58:00,45.7,22.2,18.63,SW,224,15.4,22.4,39,0.00,,---,0.00,VWS V13.01,2013-01-20 05:58:00,
2013-01-20 01:03:00,45.9,22.3,18.63,SW,235,5.4,19.2,39,0.00,,---,0.00,VWS V13.01,2013-01-20 06:03:00,
2013-01-20 01:08:00,45.9,22.3,18.63,North,8,10.5,22.4,39,0.00,,---,0.00,VWS V13.01,2013-01-20 06:08:00,
2013-01-20 01:13:00,45.9,22.3,18.63,North,5,13.2,15.0,39,0.00,,---,0.00,VWS V13.01,2013-01-20 06:13:00,
2013-01-20 01:18:00,46.0,22.5,18.63,West,272,8.3,21.9,39,0.00,,---,0.00,VWS V13.01,2013-01-20 06:18:00,
2013-01-20 01:23:00,46.0,22.5,18.63,SSW,211,17.9,19.2,39,0.00,,---,0.00,VWS V13.01,2013-01-20 06:23:00,
2013-01-20 01:28:00,46.0,23.1,18.63,North,5,12.3,19.2,40,0.00,,---,0.00,VWS V13.01,2013-01-20 06:28:00,
2013-01-20 01:34:00,46.0,23.1,18.63,SW,225,9.6,17.0,40,0.00,,---,0.00,VWS V13.01,2013-01-20 06:34:00,
2013-01-20 01:39:00,46.2,23.2,18.63,West,277,13.6,21.0,40,0.00,,---,0.00,VWS V13.01,2013-01-20 06:39:00,
2013-01-20 01:44:00,46.2,23.2,18.63,SW,226,13.2,18.3,40,0.00,,---,0.00,VWS V13.01,2013-01-20 06:44:00,
2013-01-20 01:49:00,46.2,23.2,18.63,SSW,210,16.3,23.3,40,0.00,,---,0.00,VWS V13.01,2013-01-20 06:49:00,
2013-01-20 01:54:00,46.2,23.2,18.63,NNE,19,14.5,17.4,40,0.00,,---,0.00,VWS V13.01,2013-01-20 06:54:00,
2013-01-20 01:59:00,46.2,23.2,18.63,SSW,202,11.0,23.7,40,0.00,,---,0.00,VWS V13.01,2013-01-20 06:59:00,
2013-01-20 02:04:00,46.2,23.2,18.63,SW,220,8.3,23.7,40,0.00,,---,0.00,VWS V13.01,2013-01-20 07:04:00,
2013-01-20 02:09:00,46.2,23.2,18.63,SW,216,10.1,25.1,40,0.00,,---,0.00,VWS V13.01,2013-01-20 07:09:00,
2013-01-20 02:14:00,46.2,23.2,18.63,SW,222,18.8,25.5,40,0.00,,---,0.00,VWS V13.01,2013-01-20 07:14:00,
2013-01-20 02:19:00,46.2,23.8,18.63,SW,223,18.3,25.5,41,0.00,,---,0.00,VWS V13.01,2013-01-20 07:19:00,
2013-01-20 02:24:00,46.2,23.8,18.63,WSW,238,22.4,22.4,41,0.00,,---,0.00,VWS V13.01,2013-01-20 07:24:00,
2013-01-20 02:29:00,46.2,23.8,18.63,SW,225,12.8,22.8,41,0.00,,---,0.00,VWS V13.01,2013-01-20 07:29:00,
2013-01-20 02:35:00,46.0,23.7,18.63,SSE,151,17.4,17.4,41,0.00,,---,0.00,VWS V13.01,2013-01-20 07:35:00,
2013-01-20 02:40:00,46.0,23.7,18.63,WSW,237,8.3,10.5,41,0.00,,---,0.00,VWS V13.01,2013-01-20 07:40:00,
2013-01-20 02:45:00,46.0,23.7,18.63,SSW,201,14.5,21.5,41,0.00,,---,0.00,VWS V13.01,2013-01-20 07:45:00,
2013-01-20 02:50:00,46.0,23.7,18.63,SSW,192,12.3,12.3,41,0.00,,---,0.00,VWS V13.01,2013-01-20 07:50:00,
2013-01-20 02:55:00,46.0,24.2,18.63,SW,236,21.9,21.9,42,0.00,,---,0.00,VWS V13.01,2013-01-20 07:55:00,
2013-01-20 03:00:00,46.0,24.2,18.63,SW,232,12.8,12.8,42,0.00,,---,0.00,VWS V13.01,2013-01-20 08:00:00,
2013-01-20 03:05:00,46.0,24.2,18.63,NNE,24,12.8,24.6,42,0.00,,---,0.00,VWS V13.01,2013-01-20 08:05:00,
2013-01-20 03:10:00,46.0,24.2,18.63,SW,230,17.9,17.9,42,0.00,,---,0.00,VWS V13.01,2013-01-20 08:10:00,
2013-01-20 03:15:00,46.0,24.2,18.63,North,6,8.3,26.6,42,0.00,,---,0.00,VWS V13.01,2013-01-20 08:15:00,
2013-01-20 03:20:00,45.9,24.1,18.63,WSW,254,22.4,22.4,42,0.00,,---,0.00,VWS V13.01,2013-01-20 08:20:00,
2013-01-20 03:25:00,45.9,24.1,18.63,SW,225,12.8,27.1,42,0.00,,---,0.00,VWS V13.01,2013-01-20 08:25:00,
2013-01-20 03:31:00,45.9,24.1,18.63,WSW,243,26.6,26.6,42,0.00,,---,0.00,VWS V13.01,2013-01-20 08:31:00,
2013-01-20 03:36:00,46.0,24.2,18.63,WSW,238,10.5,27.1,42,0.00,,---,0.00,VWS V13.01,2013-01-20 08:36:00,
2013-01-20 03:41:00,46.0,24.2,18.63,SSW,211,11.0,11.0,42,0.00,,---,0.00,VWS V13.01,2013-01-20 08:41:00,
2013-01-20 03:46:00,45.9,24.6,18.63,SSW,211,11.0,24.2,43,0.00,,---,0.00,VWS V13.01,2013-01-20 08:46:00,
2013-01-20 03:51:00,45.9,25.2,18.63,North,4,17.4,17.4,44,0.00,,---,0.00,VWS V13.01,2013-01-20 08:51:00,
2013-01-20 03:56:00,45.5,25.4,18.63,SW,218,16.3,17.9,45,0.00,,---,0.00,VWS V13.01,2013-01-20 08:56:00,
2013-01-20 04:01:00,45.3,26.3,18.63,SW,228,15.0,22.8,47,0.00,,---,0.00,VWS V13.01,2013-01-20 09:01:00,
2013-01-20 04:06:00,45.3,26.8,18.63,North,6,22.8,22.8,48,0.00,,---,0.00,VWS V13.01,2013-01-20 09:06:00,
2013-01-20 04:11:00,45.0,27.5,18.63,WSW,245,11.4,16.3,50,0.00,,---,0.00,VWS V13.01,2013-01-20 09:11:00,
2013-01-20 04:16:00,44.6,27.6,18.63,SW,218,12.8,18.8,51,0.00,,---,0.00,VWS V13.01,2013-01-20 09:16:00,
2013-01-20 04:21:00,43.9,28.8,18.63,WSW,248,23.3,24.2,55,0.00,,---,0.00,VWS V13.01,2013-01-20 09:21:00,
2013-01-20 04:26:00,43.3,29.6,18.63,SSW,211,15.4,24.2,58,0.00,,---,0.00,VWS V13.01,2013-01-20 09:26:00,
2013-01-20 04:31:00,42.8,29.9,18.63,WSW,240,10.1,26.6,60,0.00,,---,0.00,VWS V13.01,2013-01-20 09:31:00,
2013-01-20 04:37:00,42.6,30.1,18.63,WSW,244,24.6,26.6,61,0.00,,---,0.00,VWS V13.01,2013-01-20 09:37:00,
2013-01-20 04:42:00,42.6,29.3,18.63,West,267,11.0,22.8,59,0.00,,---,0.00,VWS V13.01,2013-01-20 09:42:00,
2013-01-20 04:47:00,42.6,28.0,18.63,SW,235,17.0,32.0,56,0.00,,---,0.00,VWS V13.01,2013-01-20 09:47:00,
2013-01-20 04:52:00,42.6,27.1,18.63,SW,231,23.7,28.0,54,0.00,,---,0.00,VWS V13.01,2013-01-20 09:52:00,
2013-01-20 04:57:00,42.6,26.7,18.63,WSW,258,20.6,28.0,53,0.00,,---,0.00,VWS V13.01,2013-01-20 09:57:00,
2013-01-20 05:02:00,42.8,26.4,18.63,SW,231,21.9,28.0,52,0.00,,---,0.00,VWS V13.01,2013-01-20 10:02:00,
2013-01-20 05:07:00,42.8,26.4,18.63,WSW,253,32.4,32.4,52,0.00,,---,0.00,VWS V13.01,2013-01-20 10:07:00,
2013-01-20 05:12:00,42.6,26.7,18.63,WSW,244,21.0,26.6,53,0.00,,---,0.00,VWS V13.01,2013-01-20 10:12:00,
2013-01-20 05:17:00,42.3,26.8,18.63,WSW,250,32.9,39.4,54,0.00,,---,0.00,VWS V13.01,2013-01-20 10:17:00,
2013-01-20 05:22:00,42.1,26.6,18.63,North,6,26.2,40.7,54,0.00,,---,0.00,VWS V13.01,2013-01-20 10:22:00,
2013-01-20 05:28:00,42.1,26.6,18.63,West,260,27.1,40.7,54,0.00,,---,0.00,VWS V13.01,2013-01-20 10:28:00,
2013-01-20 05:33:00,41.7,26.3,18.63,West,260,11.0,28.4,54,0.00,,---,0.00,VWS V13.01,2013-01-20 10:33:00,
2013-01-20 05:38:00,41.5,26.1,18.63,West,264,15.4,28.9,54,0.00,,---,0.00,VWS V13.01,2013-01-20 10:38:00,
2013-01-20 05:43:00,41.2,25.4,18.63,West,264,34.9,35.3,53,0.00,,---,0.00,VWS V13.01,2013-01-20 10:43:00,
2013-01-20 05:48:00,41.0,23.3,18.63,West,278,24.2,49.4,49,0.00,,---,0.00,VWS V13.01,2013-01-20 10:48:00,
2013-01-20 05:53:00,40.6,22.0,18.63,WSW,246,28.0,32.4,47,0.00,,---,0.00,VWS V13.01,2013-01-20 10:53:00,
2013-01-20 05:58:00,40.3,20.6,18.63,West,276,25.5,33.3,45,0.00,,---,0.00,VWS V13.01,2013-01-20 10:58:00,
2013-01-20 06:03:00,40.3,20.6,18.63,West,264,28.9,33.3,45,0.00,,---,0.00,VWS V13.01,2013-01-20 11:03:00,
2013-01-20 06:08:00,40.1,21.0,18.63,SW,214,30.6,35.3,46,0.00,,---,0.00,VWS V13.01,2013-01-20 11:08:00,
2013-01-20 06:13:00,39.7,21.7,18.63,West,262,33.3,39.8,48,0.00,,---,0.00,VWS V13.01,2013-01-20 11:13:00,
2013-01-20 06:18:00,39.6,22.5,18.63,WSW,241,24.2,39.8,50,0.00,,---,0.00,VWS V13.01,2013-01-20 11:18:00,
2013-01-20 06:24:00,39.2,22.1,18.63,WSW,247,22.8,34.4,50,0.00,,---,0.00,VWS V13.01,2013-01-20 11:24:00,
2013-01-20 06:29:00,39.0,22.4,18.63,SW,220,15.4,39.4,51,0.00,,---,0.00,VWS V13.01,2013-01-20 11:29:00,
2013-01-20 06:34:00,38.8,22.3,18.63,WSW,256,30.2,30.2,51,0.00,,---,0.00,VWS V13.01,2013-01-20 11:34:00,
2013-01-20 06:39:00,38.8,21.8,18.63,WSW,253,12.8,37.6,50,0.00,,---,0.00,VWS V13.01,2013-01-20 11:39:00,
2013-01-20 06:44:00,38.7,21.2,18.63,West,261,27.1,32.4,49,0.00,,---,0.00,VWS V13.01,2013-01-20 11:44:00,
2013-01-20 06:49:00,38.7,20.7,18.63,West,272,28.0,34.4,48,0.00,,---,0.00,VWS V13.01,2013-01-20 11:49:00,
2013-01-20 06:54:00,38.5,20.5,18.63,West,259,14.1,29.3,48,0.00,,---,0.00,VWS V13.01,2013-01-20 11:54:00,
2013-01-20 06:59:00,38.3,20.8,18.63,SW,235,22.8,32.9,49,0.00,,---,0.00,VWS V13.01,2013-01-20 11:59:00,
2013-01-20 07:05:00,38.1,20.7,18.63,WNW,283,15.4,28.9,49,0.00,,---,0.00,VWS V13.01,2013-01-20 12:05:00,
2013-01-20 07:10:00,37.9,19.0,18.63,WSW,243,30.6,31.5,46,0.00,,---,0.00,VWS V13.01,2013-01-20 12:10:00,
2013-01-20 07:15:00,37.6,19.2,18.63,WSW,247,18.3,31.5,47,0.00,,---,0.00,VWS V13.01,2013-01-20 12:15:00,
2013-01-20 07:20:00,37.2,18.4,18.63,West,265,30.6,30.6,46,0.00,,---,0.00,VWS V13.01,2013-01-20 12:20:00,
2013-01-20 07:25:00,36.7,16.8,18.63,WSW,250,25.1,37.1,44,0.00,,---,0.00,VWS V13.01,2013-01-20 12:25:00,
2013-01-20 07:30:00,36.3,16.5,18.63,SW,223,25.5,26.2,44,0.00,,---,0.00,VWS V13.01,2013-01-20 12:30:00,
2013-01-20 07:36:00,36.0,16.7,18.63,WSW,237,16.8,30.6,45,0.00,,---,0.00,VWS V13.01,2013-01-20 12:36:00,
2013-01-20 07:41:00,35.6,15.9,18.63,SW,236,23.7,26.2,44,0.00,,---,0.00,VWS V13.01,2013-01-20 12:41:00,
2013-01-20 07:46:00,34.9,15.7,18.63,WSW,250,18.3,26.2,45,0.00,,---,0.00,VWS V13.01,2013-01-20 12:46:00,
2013-01-20 07:51:00,34.0,13.9,18.63,WSW,252,25.1,37.6,43,0.00,,---,0.00,VWS V13.01,2013-01-20 12:51:00,
2013-01-20 07:56:00,33.3,13.2,18.63,WSW,244,14.5,37.6,43,0.00,,---,0.00,VWS V13.01,2013-01-20 12:56:00,
2013-01-20 08:01:00,33.1,13.0,18.63,WSW,250,13.6,17.9,43,0.00,,---,0.00,VWS V13.01,2013-01-20 13:01:00,
2013-01-20 08:06:00,32.7,12.7,18.63,West,278,15.4,25.1,43,0.00,,---,0.00,VWS V13.01,2013-01-20 13:06:00,
2013-01-20 08:11:00,32.5,13.1,18.63,West,270,17.4,22.4,44,0.00,,---,0.00,VWS V13.01,2013-01-20 13:11:00,
2013-01-20 08:16:00,32.2,12.7,18.63,WSW,250,26.6,26.6,44,0.00,,---,0.00,VWS V13.01,2013-01-20 13:16:00,
2013-01-20 08:21:00,31.8,12.4,18.63,WSW,252,26.2,26.2,44,0.00,,---,0.00,VWS V13.01,2013-01-20 13:21:00,
2013-01-20 08:27:00,31.5,12.6,18.63,West,275,11.0,27.5,45,0.00,,---,0.00,VWS V13.01,2013-01-20 13:27:00,
2013-01-20 08:32:00,31.5,12.6,18.63,WSW,240,10.5,26.2,45,0.00,,---,0.00,VWS V13.01,2013-01-20 13:32:00,
2013-01-20 08:37:00,31.3,13.4,18.63,WSW,251,16.3,26.2,47,0.00,,---,0.00,VWS V13.01,2013-01-20 13:37:00,
2013-01-20 08:42:00,30.9,14.9,18.63,NW,306,7.6,17.0,51,0.00,,---,0.00,VWS V13.01,2013-01-20 13:42:00,
2013-01-20 08:47:00,30.9,14.9,18.63,West,260,16.3,17.4,51,0.00,,---,0.00,VWS V13.01,2013-01-20 13:47:00,
2013-01-20 08:52:00,29.8,16.5,18.63,WSW,243,18.8,23.3,57,0.00,,---,0.00,VWS V13.01,2013-01-20 13:52:00,
2013-01-20 08:58:00,29.5,16.9,18.63,West,264,12.8,23.3,59,0.00,,---,0.00,VWS V13.01,2013-01-20 13:58:00,
2013-01-20 09:03:00,29.3,16.8,18.63,West,269,15.0,25.7,59,0.00,,---,0.00,VWS V13.01,2013-01-20 14:03:00,
2013-01-20 09:08:00,29.1,15.8,18.63,WSW,243,11.0,25.7,57,0.00,,---,0.00,VWS V13.01,2013-01-20 14:08:00,
2013-01-20 09:13:00,28.9,14.8,18.63,WNW,284,10.1,25.7,55,0.00,,---,0.00,VWS V13.01,2013-01-20 14:13:00,
2013-01-20 09:18:00,29.1,14.6,18.63,West,259,14.1,25.7,54,0.00,,---,0.00,VWS V13.01,2013-01-20 14:18:00,
2013-01-20 09:23:00,29.1,13.7,18.63,WSW,253,13.2,25.5,52,0.00,,---,0.00,VWS V13.01,2013-01-20 14:23:00,
2013-01-20 09:28:00,29.3,13.9,18.63,SW,225,12.8,25.5,52,0.00,,---,0.00,VWS V13.01,2013-01-20 14:28:00,
2013-01-20 09:33:00,29.1,13.3,18.63,SW,226,12.8,27.5,51,0.00,,---,0.00,VWS V13.01,2013-01-20 14:33:00,
2013-01-20 09:38:00,29.1,13.3,18.63,West,266,15.4,29.8,51,0.00,,---,0.00,VWS V13.01,2013-01-20 14:38:00,
2013-01-20 09:44:00,29.1,13.3,18.63,West,274,17.9,20.1,51,0.00,,---,0.00,VWS V13.01,2013-01-20 14:44:00,
2013-01-20 09:49:00,29.1,13.3,18.63,WSW,253,10.5,21.5,51,0.00,,---,0.00,VWS V13.01,2013-01-20 14:49:00,
2013-01-20 09:54:00,29.1,13.3,18.63,West,274,11.0,25.1,51,0.00,,---,0.00,VWS V13.01,2013-01-20 14:54:00,
2013-01-20 09:59:00,28.9,11.7,18.63,West,273,15.0,30.2,48,0.00,,---,0.00,VWS V13.01,2013-01-20 14:59:00,
2013-01-20 10:04:00,28.6,10.4,18.63,WSW,256,24.2,32.0,46,0.00,,---,0.00,VWS V13.01,2013-01-20 15:04:00,
2013-01-20 10:09:00,28.6,10.4,18.63,WSW,252,20.1,32.0,46,0.00,,---,0.00,VWS V13.01,2013-01-20 15:09:00,
2013-01-20 10:14:00,28.6,10.4,18.63,SW,235,15.4,30.2,46,0.00,,---,0.00,VWS V13.01,2013-01-20 15:14:00,
2013-01-20 10:19:00,28.6,10.4,18.63,West,272,12.8,30.2,46,0.00,,---,0.00,VWS V13.01,2013-01-20 15:19:00,
2013-01-20 10:24:00,28.6,10.4,18.63,WSW,256,15.4,17.4,46,0.00,,---,0.00,VWS V13.01,2013-01-20 15:24:00,
2013-01-20 10:29:00,28.6,10.4,18.63,WNW,287,15.0,30.6,46,0.00,,---,0.00,VWS V13.01,2013-01-20 15:29:00,
2013-01-20 10:34:00,28.6,10.4,18.63,West,264,21.5,28.9,46,0.00,,---,0.00,VWS V13.01,2013-01-20 15:34:00,
2013-01-20 10:39:00,28.8,9.1,18.63,West,270,15.4,28.9,43,0.00,,---,0.00,VWS V13.01,2013-01-20 15:39:00,
2013-01-20 10:44:00,28.8,9.6,18.63,West,261,15.9,22.8,44,0.00,,---,0.00,VWS V13.01,2013-01-20 15:44:00,
2013-01-20 10:50:00,28.6,9.4,18.63,West,268,12.8,28.0,44,0.00,,---,0.00,VWS V13.01,2013-01-20 15:50:00,
2013-01-20 10:55:00,28.9,9.8,18.63,WSW,249,25.5,25.5,44,0.00,,---,0.00,VWS V13.01,2013-01-20 15:55:00,
2013-01-20 11:00:00,29.3,10.1,18.63,West,266,8.7,8.7,44,0.00,,---,0.00,VWS V13.01,2013-01-20 16:00:00,
2013-01-20 11:05:00,29.7,10.4,18.63,WNW,292,15.0,17.0,44,0.00,,---,0.00,VWS V13.01,2013-01-20 16:05:00,
2013-01-20 11:10:00,29.1,9.4,18.63,West,263,20.1,20.1,43,0.00,,---,0.00,VWS V13.01,2013-01-20 16:10:00,
2013-01-20 11:15:00,28.6,8.4,18.63,WNW,287,15.0,23.3,42,0.00,,---,0.00,VWS V13.01,2013-01-20 16:15:00,
2013-01-20 11:20:00,28.6,8.4,18.63,WNW,303,23.3,23.3,42,0.00,,---,0.00,VWS V13.01,2013-01-20 16:20:00,
2013-01-20 11:25:00,28.4,8.2,18.63,West,273,15.9,31.1,42,0.00,,---,0.00,VWS V13.01,2013-01-20 16:25:00,
2013-01-20 11:30:00,28.4,8.2,18.63,WSW,257,11.9,19.2,42,0.00,,---,0.00,VWS V13.01,2013-01-20 16:30:00,
2013-01-20 11:35:00,28.8,8.0,18.63,SW,233,12.8,19.2,41,0.00,,---,0.00,VWS V13.01,2013-01-20 16:35:00,
2013-01-20 11:40:00,28.9,8.2,18.63,WNW,297,17.9,17.9,41,0.00,,---,0.00,VWS V13.01,2013-01-20 16:40:00,
2013-01-20 11:45:00,29.1,8.4,18.63,West,263,13.2,21.9,41,0.00,,---,0.00,VWS V13.01,2013-01-20 16:45:00,
2013-01-20 11:50:00,29.3,9.1,18.63,West,270,18.8,18.8,42,0.00,,---,0.00,VWS V13.01,2013-01-20 16:50:00,
2013-01-20 11:55:00,29.3,9.1,18.63,WNW,285,14.5,24.6,42,0.00,,---,0.00,VWS V13.01,2013-01-20 16:55:00,
2013-01-20 12:00:00,29.1,8.4,18.63,West,269,23.7,23.7,41,0.00,,---,0.00,VWS V13.01,2013-01-20 17:00:00,
2013-01-20 12:05:00,28.6,7.9,18.63,WNW,283,19.2,29.3,41,0.00,,---,0.00,VWS V13.01,2013-01-20 17:05:00,
2013-01-20 12:10:00,28.2,8.1,18.63,West,275,8.1,18.3,42,0.00,,---,0.00,VWS V13.01,2013-01-20 17:10:00,
2013-01-20 12:16:00,27.9,7.8,18.63,NW,325,10.5,21.5,42,0.00,,---,0.00,VWS V13.01,2013-01-20 17:16:00,
2013-01-20 12:21:00,27.9,7.8,18.63,WNW,284,21.5,21.5,42,0.00,,---,0.00,VWS V13.01,2013-01-20 17:21:00,
2013-01-20 12:26:00,27.9,7.2,18.63,West,269,17.0,27.5,41,0.00,,---,0.00,VWS V13.01,2013-01-20 17:26:00,
2013-01-20 12:31:00,27.5,6.9,18.63,West,272,17.0,23.3,41,0.00,,---,0.00,VWS V13.01,2013-01-20 17:31:00,
2013-01-20 12:36:00,27.7,7.1,18.63,WSW,246,19.7,25.7,41,0.00,,---,0.00,VWS V13.01,2013-01-20 17:36:00,
2013-01-20 12:41:00,27.9,7.2,18.63,WSW,252,18.8,25.1,41,0.00,,---,0.00,VWS V13.01,2013-01-20 17:41:00,
2013-01-20 12:46:00,27.9,7.2,18.63,WNW,282,11.0,25.5,41,0.00,,---,0.00,VWS V13.01,2013-01-20 17:46:00,
2013-01-20 12:51:00,28.4,7.7,18.63,WNW,283,9.6,15.4,41,0.00,,---,0.00,VWS V13.01,2013-01-20 17:51:00,
2013-01-20 12:56:00,29.1,8.4,18.63,WSW,256,10.5,17.9,41,0.00,,---,0.00,VWS V13.01,2013-01-20 17:56:00,
2013-01-20 13:01:00,28.9,8.2,18.63,West,262,8.7,12.3,41,0.00,,---,0.00,VWS V13.01,2013-01-20 18:01:00,
2013-01-20 13:06:00,28.2,7.6,18.63,West,274,15.4,26.2,41,0.00,,---,0.00,VWS V13.01,2013-01-20 18:06:00,
2013-01-20 13:11:00,28.2,7.6,18.63,WSW,253,13.2,22.4,41,0.00,,---,0.00,VWS V13.01,2013-01-20 18:11:00,
2013-01-20 13:16:00,27.9,7.2,18.63,WNW,292,12.8,24.6,41,0.00,,---,0.00,VWS V13.01,2013-01-20 18:16:00,
2013-01-20 13:21:00,27.0,6.4,18.63,SW,228,19.7,19.7,41,0.00,,---,0.00,VWS V13.01,2013-01-20 18:21:00,
2013-01-20 13:26:00,26.8,6.2,18.63,WSW,256,13.2,19.7,41,0.00,,---,0.00,VWS V13.01,2013-01-20 18:26:00,
2013-01-20 13:31:00,27.1,6.6,18.63,West,272,10.5,17.0,41,0.00,,---,0.00,VWS V13.01,2013-01-20 18:31:00,
2013-01-20 13:36:00,27.3,6.7,18.63,WSW,249,22.8,25.5,41,0.00,,---,0.00,VWS V13.01,2013-01-20 18:36:00,
2013-01-20 13:42:00,27.1,6.6,18.63,West,267,13.2,27.1,41,0.00,,---,0.00,VWS V13.01,2013-01-20 18:42:00,
2013-01-20 13:47:00,27.0,6.4,18.63,West,276,23.3,30.6,41,0.00,,---,0.00,VWS V13.01,2013-01-20 18:47:00,
2013-01-20 13:52:00,26.6,6.6,18.63,West,266,7.6,17.0,42,0.00,,---,0.00,VWS V13.01,2013-01-20 18:52:00,
2013-01-20 13:57:00,26.4,6.4,18.63,West,270,14.5,25.5,42,0.00,,---,0.00,VWS V13.01,2013-01-20 18:57:00,
2013-01-20 14:02:00,26.2,6.3,18.63,West,276,16.8,24.2,42,0.00,,---,0.00,VWS V13.01,2013-01-20 19:02:00,
2013-01-20 14:07:00,26.1,6.1,18.63,West,279,15.0,27.5,42,0.00,,---,0.00,VWS V13.01,2013-01-20 19:07:00,
2013-01-20 14:12:00,26.1,6.1,18.63,WNW,284,15.0,20.6,42,0.00,,---,0.00,VWS V13.01,2013-01-20 19:12:00,
2013-01-20 14:17:00,25.9,6.0,18.63,West,260,11.4,21.9,42,0.00,,---,0.00,VWS V13.01,2013-01-20 19:17:00,
2013-01-20 14:22:00,25.9,6.5,18.63,WSW,241,13.6,22.4,43,0.00,,---,0.00,VWS V13.01,2013-01-20 19:22:00,
2013-01-20 14:27:00,25.5,6.2,18.63,WNW,283,16.3,22.4,43,0.00,,---,0.00,VWS V13.01,2013-01-20 19:27:00,
2013-01-20 14:32:00,25.3,6.0,18.63,West,270,11.4,25.1,43,0.00,,---,0.00,VWS V13.01,2013-01-20 19:32:00,
2013-01-20 14:37:00,25.3,6.5,18.63,NW,316,13.6,25.1,44,0.00,,---,0.00,VWS V13.01,2013-01-20 19:37:00,
2013-01-20 14:42:00,25.5,6.7,18.63,WSW,249,10.5,22.4,44,0.00,,---,0.00,VWS V13.01,2013-01-20 19:42:00,
2013-01-20 14:48:00,25.5,6.7,18.63,WSW,242,16.3,25.7,44,0.00,,---,0.00,VWS V13.01,2013-01-20 19:48:00,
2013-01-20 14:53:00,25.3,6.5,18.63,WSW,240,15.4,21.5,44,0.00,,---,0.00,VWS V13.01,2013-01-20 19:53:00,
2013-01-20 14:58:00,25.3,6.5,18.63,WSW,237,14.5,21.9,44,0.00,,---,0.00,VWS V13.01,2013-01-20 19:58:00,
2013-01-20 15:03:00,25.2,6.3,18.63,West,274,13.2,17.4,44,0.00,,---,0.00,VWS V13.01,2013-01-20 20:03:00,
2013-01-20 15:08:00,25.2,6.3,18.63,West,261,10.1,22.8,44,0.00,,---,0.00,VWS V13.01,2013-01-20 20:08:00,
2013-01-20 15:13:00,25.3,6.5,18.63,WSW,257,12.8,16.3,44,0.00,,---,0.00,VWS V13.01,2013-01-20 20:13:00,
2013-01-20 15:18:00,25.0,6.7,18.63,WSW,254,8.3,16.3,45,0.00,,---,0.00,VWS V13.01,2013-01-20 20:18:00,
2013-01-20 15:23:00,25.2,7.3,18.63,West,271,11.9,19.7,46,0.00,,---,0.00,VWS V13.01,2013-01-20 20:23:00,
2013-01-20 15:28:00,25.0,7.1,18.63,WNW,293,7.6,19.7,46,0.00,,---,0.00,VWS V13.01,2013-01-20 20:28:00,
2013-01-20 15:33:00,25.0,7.1,18.63,WSW,256,11.0,13.2,46,0.00,,---,0.00,VWS V13.01,2013-01-20 20:33:00,
2013-01-20 15:38:00,25.0,7.6,18.63,WSW,250,12.8,15.0,47,0.00,,---,0.00,VWS V13.01,2013-01-20 20:38:00,
2013-01-20 15:43:00,24.8,7.4,18.63,West,280,18.8,18.8,47,0.00,,---,0.00,VWS V13.01,2013-01-20 20:43:00,
2013-01-20 15:48:00,24.6,6.8,18.63,West,276,5.8,18.8,46,0.00,,---,0.00,VWS V13.01,2013-01-20 20:48:00,
2013-01-20 15:53:00,24.4,7.1,18.63,West,267,5.8,18.8,47,0.00,,---,0.00,VWS V13.01,2013-01-20 20:53:00,
2013-01-20 15:59:00,24.4,6.6,18.63,WSW,238,11.0,18.8,46,0.00,,---,0.00,VWS V13.01,2013-01-20 20:59:00,
2013-01-20 16:04:00,24.4,6.2,18.63,WSW,256,11.0,18.3,45,0.00,,---,0.00,VWS V13.01,2013-01-20 21:04:00,
2013-01-20 16:09:00,24.3,6.5,18.63,West,268,8.3,18.3,46,0.00,,---,0.00,VWS V13.01,2013-01-20 21:09:00,
2013-01-20 16:15:00,24.3,6.9,18.63,SW,217,8.1,15.0,47,0.00,,---,0.00,VWS V13.01,2013-01-20 21:15:00,
2013-01-20 16:20:00,24.1,7.2,18.63,West,263,11.0,11.0,48,0.00,,---,0.00,VWS V13.01,2013-01-20 21:20:00,
2013-01-20 16:25:00,23.9,7.5,18.63,West,275,15.4,15.4,49,0.00,,---,0.00,VWS V13.01,2013-01-20 21:25:00,
2013-01-20 16:31:00,23.5,8.5,18.63,WNW,282,5.4,8.7,52,0.00,,---,0.00,VWS V13.01,2013-01-20 21:31:00,
2013-01-20 16:36:00,23.5,8.5,18.63,SW,230,8.3,12.8,52,0.00,,---,0.00,VWS V13.01,2013-01-20 21:36:00,
2013-01-20 16:41:00,23.4,8.8,18.63,West,268,6.3,8.1,53,0.00,,---,0.00,VWS V13.01,2013-01-20 21:41:00,
2013-01-20 16:48:00,23.4,9.2,18.63,West,274,10.1,13.2,54,0.00,,---,0.00,VWS V13.01,2013-01-20 21:48:00,
2013-01-20 16:53:00,23.2,9.0,18.63,WSW,255,10.5,14.5,54,0.00,,---,0.00,VWS V13.01,2013-01-20 21:53:00,
2013-01-20 16:58:00,23.0,8.9,18.63,West,271,8.1,14.5,54,0.00,,---,0.00,VWS V13.01,2013-01-20 21:58:00,
2013-01-20 17:03:00,22.8,8.7,18.63,West,278,10.1,13.2,54,0.00,,---,0.00,VWS V13.01,2013-01-20 22:03:00,
2013-01-20 17:08:00,22.8,9.1,18.63,West,268,8.1,13.2,55,0.00,,---,0.00,VWS V13.01,2013-01-20 22:08:00,
2013-01-20 17:14:00,22.8,8.7,18.63,West,274,8.3,11.0,54,0.00,,---,0.00,VWS V13.01,2013-01-20 22:14:00,
2013-01-20 17:19:00,22.8,9.1,18.63,WNW,283,6.3,11.0,55,0.00,,---,0.00,VWS V13.01,2013-01-20 22:19:00,
2013-01-20 17:24:00,22.6,8.9,18.63,West,271,11.0,14.1,55,0.00,,---,0.00,VWS V13.01,2013-01-20 22:24:00,
2013-01-20 17:29:00,22.5,8.3,18.63,WNW,284,8.3,18.3,54,0.00,,---,0.00,VWS V13.01,2013-01-20 22:29:00,
2013-01-20 17:34:00,22.5,7.9,18.63,WNW,289,8.1,10.5,53,0.00,,---,0.00,VWS V13.01,2013-01-20 22:34:00,
2013-01-20 17:39:00,22.5,7.9,18.63,WNW,291,8.3,11.0,53,0.00,,---,0.00,VWS V13.01,2013-01-20 22:39:00,
2013-01-20 17:44:00,22.5,7.5,18.63,West,279,7.2,12.3,52,0.00,,---,0.00,VWS V13.01,2013-01-20 22:44:00,
2013-01-20 17:49:00,22.5,6.2,18.63,WSW,258,6.3,15.4,49,0.00,,---,0.00,VWS V13.01,2013-01-20 22:49:00,
2013-01-20 17:55:00,22.5,5.8,18.63,West,279,8.3,13.2,48,0.00,,---,0.00,VWS V13.01,2013-01-20 22:55:00,
2013-01-20 18:00:00,22.6,5.5,18.63,West,274,5.4,10.5,47,0.00,,---,0.00,VWS V13.01,2013-01-20 23:00:00,
2013-01-20 18:06:00,22.6,5.0,18.63,WNW,289,3.6,15.9,46,0.00,,---,0.00,VWS V13.01,2013-01-20 23:06:00,
2013-01-20 18:11:00,22.6,5.5,18.63,West,271,8.3,11.0,47,0.00,,---,0.00,VWS V13.01,2013-01-20 23:11:00,
2013-01-20 18:16:00,22.5,5.8,18.63,WNW,290,8.7,13.2,48,0.00,,---,0.00,VWS V13.01,2013-01-20 23:16:00,
2013-01-20 18:22:00,22.3,6.0,18.63,WSW,250,8.1,12.3,49,0.00,,---,0.00,VWS V13.01,2013-01-20 23:22:00,
2013-01-20 18:27:00,22.3,6.5,18.63,West,274,11.0,12.3,50,0.00,,---,0.00,VWS V13.01,2013-01-20 23:27:00,
2013-01-20 18:32:00,21.9,8.2,18.63,WNW,285,11.9,15.4,55,0.00,,---,0.00,VWS V13.01,2013-01-20 23:32:00,
2013-01-20 18:38:00,21.2,8.7,18.63,West,274,7.6,18.3,58,0.00,,---,0.00,VWS V13.01,2013-01-20 23:38:00,
2013-01-20 18:43:00,21.0,9.7,18.63,West,262,12.3,12.8,61,0.00,,---,0.00,VWS V13.01,2013-01-20 23:43:00,
2013-01-20 18:48:00,20.7,9.7,18.63,West,277,16.3,16.3,62,0.00,,---,0.00,VWS V13.01,2013-01-20 23:48:00,
2013-01-20 18:53:00,20.7,9.0,18.63,WSW,251,8.3,12.8,60,0.00,,---,0.00,VWS V13.01,2013-01-20 23:53:00,
2013-01-20 18:58:00,20.7,8.2,18.63,WSW,257,8.3,15.0,58,0.00,,---,0.00,VWS V13.01,2013-01-20 23:58:00,
2013-01-20 19:04:00,20.8,8.0,18.63,West,280,6.3,15.4,57,0.00,,---,0.00,VWS V13.01,2013-01-21 00:04:00,
2013-01-20 19:09:00,20.8,7.6,18.63,SW,221,8.3,15.4,56,0.00,,---,0.00,VWS V13.01,2013-01-21 00:09:00,
2013-01-20 19:14:00,20.8,7.6,18.63,West,262,10.1,10.5,56,0.00,,---,0.00,VWS V13.01,2013-01-21 00:14:00,
2013-01-20 19:20:00,20.8,7.6,18.63,WSW,248,4.0,11.0,56,0.00,,---,0.00,VWS V13.01,2013-01-21 00:20:00,
2013-01-20 19:25:00,20.8,7.6,18.63,West,259,9.2,10.5,56,0.00,,---,0.00,VWS V13.01,2013-01-21 00:25:00,
2013-01-20 19:30:00,20.8,7.6,18.63,WSW,241,10.1,11.0,56,0.00,,---,0.00,VWS V13.01,2013-01-21 00:30:00,
2013-01-20 19:35:00,20.8,7.6,18.63,WSW,258,7.6,17.0,56,0.00,,---,0.00,VWS V13.01,2013-01-21 00:35:00,
2013-01-20 19:41:00,20.8,7.2,18.63,West,263,6.7,11.0,55,0.00,,---,0.00,VWS V13.01,2013-01-21 00:41:00,
2013-01-20 19:46:00,20.8,7.2,18.63,WSW,240,6.3,12.8,55,0.00,,---,0.00,VWS V13.01,2013-01-21 00:46:00,
2013-01-20 19:51:00,20.8,6.8,18.63,West,268,5.8,10.1,54,0.00,,---,0.00,VWS V13.01,2013-01-21 00:51:00,
2013-01-20 19:57:00,20.8,6.8,18.63,West,279,6.3,12.3,54,0.00,,---,0.00,VWS V13.01,2013-01-21 00:57:00,
2013-01-20 20:02:00,21.0,7.4,18.63,West,272,2.7,8.3,55,0.00,,---,0.00,VWS V13.01,2013-01-21 01:02:00,
2013-01-20 20:08:00,21.2,7.6,18.63,WNW,301,7.6,12.8,55,0.00,,---,0.00,VWS V13.01,2013-01-21 01:08:00,
2013-01-20 20:13:00,21.0,7.4,18.63,West,276,6.7,12.8,55,0.00,,---,0.00,VWS V13.01,2013-01-21 01:13:00,
2013-01-20 20:18:00,20.8,7.6,18.63,West,266,8.7,12.8,56,0.00,,---,0.00,VWS V13.01,2013-01-21 01:18:00,
2013-01-20 20:23:00,20.7,7.5,18.63,West,270,5.8,10.1,56,0.00,,---,0.00,VWS V13.01,2013-01-21 01:23:00,
2013-01-20 20:29:00,20.5,6.9,18.63,WNW,297,5.4,12.3,55,0.00,,---,0.00,VWS V13.01,2013-01-21 01:29:00,
2013-01-20 20:34:00,20.3,6.3,18.63,West,268,5.8,9.6,54,0.00,,---,0.00,VWS V13.01,2013-01-21 01:34:00,
2013-01-20 20:39:00,20.3,6.3,18.63,WNW,289,6.3,11.0,54,0.00,,---,0.00,VWS V13.01,2013-01-21 01:39:00,
2013-01-20 20:45:00,20.1,6.2,18.63,West,260,7.2,12.3,54,0.00,,---,0.00,VWS V13.01,2013-01-21 01:45:00,
2013-01-20 20:50:00,19.9,6.0,18.63,WNW,300,6.3,12.3,54,0.00,,---,0.00,VWS V13.01,2013-01-21 01:50:00,
2013-01-20 20:55:00,19.8,5.4,18.63,West,267,10.1,10.1,53,0.00,,---,0.00,VWS V13.01,2013-01-21 01:55:00,
2013-01-20 21:00:00,19.8,5.4,18.63,WNW,286,11.0,11.0,53,0.00,,---,0.00,VWS V13.01,2013-01-21 02:00:00,
2013-01-20 21:05:00,19.8,5.4,18.63,WNW,298,10.1,12.8,53,0.00,,---,0.00,VWS V13.01,2013-01-21 02:05:00,
2013-01-20 21:10:00,19.6,5.2,18.63,SW,233,4.0,8.7,53,0.00,,---,0.00,VWS V13.01,2013-01-21 02:10:00,
2013-01-20 21:15:00,19.6,5.2,18.63,West,266,7.6,12.3,53,0.00,,---,0.00,VWS V13.01,2013-01-21 02:15:00,
2013-01-20 21:21:00,19.6,4.8,18.63,West,259,13.2,15.4,52,0.00,,---,0.00,VWS V13.01,2013-01-21 02:21:00,
2013-01-20 21:26:00,19.4,3.8,18.63,WNW,287,8.1,15.4,50,0.00,,---,0.00,VWS V13.01,2013-01-21 02:26:00,
2013-01-20 21:31:00,19.4,3.8,18.63,West,278,7.2,8.3,50,0.00,,---,0.00,VWS V13.01,2013-01-21 02:31:00,
2013-01-20 21:37:00,19.4,2.9,18.63,West,260,8.1,11.0,48,0.00,,---,0.00,VWS V13.01,2013-01-21 02:37:00,
2013-01-20 21:42:00,19.4,2.5,18.63,WNW,288,15.4,15.4,47,0.00,,---,0.00,VWS V13.01,2013-01-21 02:42:00,
2013-01-20 21:47:00,19.4,2.0,18.63,WSW,256,8.3,15.4,46,0.00,,---,0.00,VWS V13.01,2013-01-21 02:47:00,
2013-01-20 21:53:00,19.2,1.8,18.63,WNW,294,8.1,12.8,46,0.00,,---,0.00,VWS V13.01,2013-01-21 02:53:00,
2013-01-20 21:58:00,19.2,1.8,18.63,West,262,7.6,12.8,46,0.00,,---,0.00,VWS V13.01,2013-01-21 02:58:00,
2013-01-20 22:03:00,19.0,2.1,18.63,West,263,8.3,11.0,47,0.00,,---,0.00,VWS V13.01,2013-01-21 03:03:00,
2013-01-20 22:08:00,19.0,2.1,18.63,WNW,283,4.9,11.0,47,0.00,,---,0.00,VWS V13.01,2013-01-21 03:08:00,
2013-01-20 22:14:00,18.9,2.0,18.63,West,269,6.3,10.5,47,0.00,,---,0.00,VWS V13.01,2013-01-21 03:14:00,
2013-01-20 22:19:00,18.9,2.0,18.63,WSW,255,8.1,13.2,47,0.00,,---,0.00,VWS V13.01,2013-01-21 03:19:00,
2013-01-20 22:24:00,18.7,1.8,18.63,West,262,10.1,13.2,47,0.00,,---,0.00,VWS V13.01,2013-01-21 03:24:00,
2013-01-20 22:29:00,18.7,1.8,18.63,WSW,258,6.3,13.2,47,0.00,,---,0.00,VWS V13.01,2013-01-21 03:29:00,
2013-01-20 22:35:00,18.7,1.8,18.63,West,262,5.8,8.7,47,0.00,,---,0.00,VWS V13.01,2013-01-21 03:35:00,
2013-01-20 22:40:00,18.5,1.6,18.63,West,273,8.1,9.2,47,0.00,,---,0.00,VWS V13.01,2013-01-21 03:40:00,
2013-01-20 22:45:00,18.5,1.6,18.63,WSW,239,5.8,9.2,47,0.00,,---,0.00,VWS V13.01,2013-01-21 03:45:00,
2013-01-20 22:50:00,18.5,1.6,18.63,West,277,7.6,8.3,47,0.00,,---,0.00,VWS V13.01,2013-01-21 03:50:00,
2013-01-20 22:55:00,18.3,1.9,18.63,WSW,249,7.6,9.6,48,0.00,,---,0.00,VWS V13.01,2013-01-21 03:55:00,
2013-01-20 23:01:00,18.3,1.9,18.63,West,265,9.6,11.0,48,0.00,,---,0.00,VWS V13.01,2013-01-21 04:01:00,
2013-01-20 23:06:00,18.3,2.4,18.63,West,274,7.6,11.0,49,0.00,,---,0.00,VWS V13.01,2013-01-21 04:06:00,
2013-01-20 23:11:00,18.1,3.1,18.63,WSW,241,7.2,7.6,51,0.00,,---,0.00,VWS V13.01,2013-01-21 04:11:00,
2013-01-20 23:17:00,18.1,3.5,18.63,West,280,11.9,11.9,52,0.00,,---,0.00,VWS V13.01,2013-01-21 04:17:00,
2013-01-20 23:22:00,18.0,3.7,18.63,West,271,4.9,10.5,53,0.00,,---,0.00,VWS V13.01,2013-01-21 04:22:00,
2013-01-20 23:27:00,18.0,3.7,18.63,WNW,289,4.9,10.5,53,0.00,,---,0.00,VWS V13.01,2013-01-21 04:27:00,
2013-01-20 23:33:00,17.8,3.6,18.63,West,259,4.0,8.1,53,0.00,,---,0.00,VWS V13.01,2013-01-21 04:33:00,
2013-01-20 23:38:00,17.8,3.6,18.63,West,270,6.3,8.3,53,0.00,,---,0.00,VWS V13.01,2013-01-21 04:38:00,
2013-01-20 23:43:00,17.8,3.6,18.63,West,275,4.5,10.1,53,0.00,,---,0.00,VWS V13.01,2013-01-21 04:43:00,
2013-01-20 23:48:00,17.8,3.6,18.63,West,275,8.7,10.1,53,0.00,,---,0.00,VWS V13.01,2013-01-21 04:48:00,
2013-01-20 23:54:00,17.6,3.4,18.63,West,264,5.8,8.1,53,0.00,,---,0.00,VWS V13.01,2013-01-21 04:54:00,
2013-01-20 23:59:00,17.6,3.0,18.63,West,267,6.3,8.7,52,0.00,,---,0.00,VWS V13.01,2013-01-21 04:59:00,